Pagrindinis puslapis
METAR-TAF:

METAR-TAF

Oro uostai :

Splitas, Kroatija

platuma: 43-32N, ilguma: 016-18E, Aukštis: 19 m

Dabartinis oras

Ataskaita buvo paskelbta 36 minutes, ne 05:30 UTC
Vėjas 5 kt iš Šiaurės
Temperatūra 6°C
Drėgmė 70%
Slėgis 1028 hPa
Matomumas 10 km arba daugiau
nėra debesų žemiau 1500 m ir nėra kamuolinių lietaus debesų

METAR: LDSP 230530Z 35005KT CAVOK 06/01 Q1028 NOSIG

Laikas: 07:06 (06:06 UTC)

Prognozė

Ataskaita buvo paskelbta 41 minutes, ne 05:25 UTC
Prognozė galioja nuo 23 metu 06 UTC su 24 metu 06 UTC
Vėjas 2 kt nuo kintamojo kryptimis
Matomumas 10 km arba daugiau
nėra debesų žemiau 1500 m ir nėra kamuolinių lietaus debesų
Tikimybė 40% :
Laikinai
nuo 23 metu 11 UTC su 23 metu 18 UTC
Vėjas 10 kt iš Pietvakarių

TAF: LDSP 230525Z 2306/2406 VRB02KT CAVOK TX17/2312Z TN07/2403Z PROB40 TEMPO 2311/2318 23010KT

Orai ataskaitas ir orų prognozės (METAR, TAF).

turimą stotys yra geltonos ir raudonos taškus žemėlapyje.

Perkelti pele per norėdami pamatyti stoties vardą.

Tada spustelėkite, norėdami matyti oro stebėjimo ir prognozės.

Norėdami pakeisti žemėlapį: spustelėkite ant žalios mygtukų su juodo kryžiaus žemyn,; žalią mygtuką su brūkšneliu, jei norite nutolinti; arba žalių rodyklių gretimoms žemėlapius.


METAR-TAF: